createdAt,value
2022-12-13T00:01:32.714Z,99313.41
2022-12-13T00:04:02.580Z,99316.13
2022-12-13T00:06:31.472Z,99312.56
2022-12-13T00:09:00.042Z,99313.47
2022-12-13T00:11:29.418Z,99304.69
2022-12-13T00:13:57.689Z,99309.41
2022-12-13T00:16:27.407Z,99306.88
2022-12-13T00:18:57.695Z,99306.44
2022-12-13T00:21:27.796Z,99309.28
2022-12-13T00:23:55.648Z,99304.38
2022-12-13T00:26:25.461Z,99303.63
2022-12-13T00:28:54.833Z,99299.03
2022-12-13T00:31:56.595Z,99299.56
2022-12-13T00:34:12.520Z,99297.03
2022-12-13T00:36:40.451Z,99299.97
2022-12-13T00:39:08.634Z,99292.13
2022-12-13T00:41:37.928Z,99295.78
2022-12-13T00:44:07.371Z,99297.47
2022-12-13T00:46:35.245Z,99287.72
2022-12-13T00:49:03.271Z,99281.50
2022-12-13T00:51:33.432Z,99274.59
2022-12-13T00:54:02.622Z,99273.66
2022-12-13T00:56:32.355Z,99273.03
2022-12-13T00:59:00.734Z,99275.13
2022-12-13T01:01:32.489Z,99265.59
2022-12-13T01:04:01.935Z,99261.72
2022-12-13T01:06:34.244Z,99258.38
2022-12-13T01:09:03.686Z,99260.09
2022-12-13T01:11:31.634Z,99250.88
2022-12-13T01:13:59.464Z,99259.88
2022-12-13T01:16:27.525Z,99249.63
2022-12-13T01:18:58.465Z,99267.81
2022-12-13T01:21:26.340Z,99267.63
2022-12-13T01:23:54.166Z,99263.44
2022-12-13T01:26:23.874Z,99275.34
2022-12-13T01:28:51.962Z,99273.88
2022-12-13T01:31:21.314Z,99269.53
2022-12-13T01:33:50.188Z,99265.44
2022-12-13T01:36:27.989Z,99260.63
2022-12-13T01:38:58.482Z,99264.28
2022-12-13T01:41:28.285Z,99264.91
2022-12-13T01:44:01.245Z,99260.63
2022-12-13T01:46:29.751Z,99260.63
2022-12-13T01:49:04.634Z,99257.38
2022-12-13T01:51:38.477Z,99265.72
2022-12-13T01:54:10.403Z,99264.28
2022-12-13T01:56:42.310Z,99264.69
2022-12-13T01:59:12.040Z,99253.84
2022-12-13T02:01:41.217Z,99258.53
2022-12-13T02:04:09.733Z,99256.53
2022-12-13T02:06:42.149Z,99255.28
2022-12-13T02:09:11.231Z,99255.38
2022-12-13T02:11:43.586Z,99256.44
2022-12-13T02:14:11.636Z,99258.81
2022-12-13T02:16:50.348Z,99260.00
2022-12-13T02:19:44.311Z,99256.56
2022-12-13T02:22:34.123Z,99252.38
2022-12-13T02:25:34.257Z,99266.25
2022-12-13T02:28:30.965Z,99259.06
2022-12-13T02:31:09.348Z,99258.72
2022-12-13T02:33:48.068Z,99254.25
2022-12-13T02:36:25.116Z,99255.50
2022-12-13T02:39:00.366Z,99244.44
2022-12-13T02:41:37.366Z,99253.94
2022-12-13T02:44:21.748Z,99246.31
2022-12-13T02:46:55.577Z,99243.06
2022-12-13T02:49:26.795Z,99240.44
2022-12-13T02:51:57.690Z,99239.59
2022-12-13T02:54:25.828Z,99235.44
2022-12-13T02:56:55.419Z,99223.09
2022-12-13T02:59:26.094Z,99228.75
2022-12-13T03:02:09.662Z,99222.69
2022-12-13T03:05:13.541Z,99225.63
2022-12-13T03:07:52.720Z,99231.03
2022-12-13T03:10:28.501Z,99234.19
2022-12-13T03:13:20.018Z,99234.59
2022-12-13T03:15:56.911Z,99231.28
2022-12-13T03:18:28.311Z,99231.97
2022-12-13T03:21:00.010Z,99236.47
2022-12-13T03:23:28.904Z,99237.84
2022-12-13T03:26:00.665Z,99244.81
2022-12-13T03:28:28.648Z,99243.75
2022-12-13T03:30:56.615Z,99243.88
2022-12-13T03:33:26.063Z,99235.31
2022-12-13T03:35:54.113Z,99231.97
2022-12-13T03:38:23.462Z,99227.38
2022-12-13T03:40:54.479Z,99224.97
2022-12-13T03:43:23.323Z,99225.50
2022-12-13T03:45:51.962Z,99224.97
2022-12-13T03:48:21.831Z,99226.84
2022-12-13T03:50:54.195Z,99231.84
2022-12-13T03:53:33.460Z,99235.19
2022-12-13T03:56:02.795Z,99231.41
2022-12-13T03:58:35.104Z,99230.16
2022-12-13T04:01:06.458Z,99230.97
2022-12-13T04:03:34.542Z,99227.81
2022-12-13T04:06:03.965Z,99222.50
2022-12-13T04:08:32.464Z,99230.16
2022-12-13T04:11:00.642Z,99220.63
2022-12-13T04:13:33.279Z,99217.13
2022-12-13T04:16:01.607Z,99226.44
2022-12-13T04:18:29.685Z,99223.44
2022-12-13T04:20:57.698Z,99222.06
2022-12-13T04:23:27.096Z,99224.22
2022-12-13T04:25:55.145Z,99224.22
2022-12-13T04:28:23.413Z,99219.94
2022-12-13T04:30:52.953Z,99210.16
2022-12-13T04:33:21.796Z,99220.28
2022-12-13T04:35:50.116Z,99219.44
2022-12-13T04:38:18.091Z,99213.06
2022-12-13T04:40:49.547Z,99211.28
2022-12-13T04:43:17.648Z,99221.09
2022-12-13T04:45:45.523Z,99221.31
2022-12-13T04:48:13.821Z,99217.56
2022-12-13T04:51:01.349Z,99214.41
2022-12-13T04:53:30.034Z,99213.56
2022-12-13T04:55:59.734Z,99219.63
2022-12-13T04:58:28.771Z,99216.91
2022-12-13T05:00:56.683Z,99231.94
2022-12-13T05:03:25.289Z,99229.22
2022-12-13T05:05:53.154Z,99237.16
2022-12-13T05:08:21.345Z,99235.28
2022-12-13T05:10:49.245Z,99235.28
2022-12-13T05:13:18.513Z,99225.13
2022-12-13T05:15:49.517Z,99223.41
2022-12-13T05:18:21.541Z,99211.72
2022-12-13T05:20:51.116Z,99216.94
2022-12-13T05:23:22.980Z,99213.38
2022-12-13T05:25:51.341Z,99214.81
2022-12-13T05:28:28.538Z,99222.78
2022-12-13T05:30:58.405Z,99212.63
2022-12-13T05:33:27.318Z,99208.09
2022-12-13T05:36:00.484Z,99201.00
2022-12-13T05:38:30.312Z,99209.59
2022-12-13T05:40:58.432Z,99212.63
2022-12-13T05:43:43.194Z,99206.19
2022-12-13T05:46:12.442Z,99208.81
2022-12-13T05:48:40.501Z,99207.13
2022-12-13T05:51:09.841Z,99205.44
2022-12-13T05:53:40.109Z,99209.09
2022-12-13T05:56:08.661Z,99203.03
2022-12-13T05:58:39.374Z,99210.41
2022-12-13T06:01:08.780Z,99200.28
2022-12-13T06:03:37.061Z,99204.38
2022-12-13T06:06:06.721Z,99201.00
2022-12-13T06:08:34.925Z,99207.66
2022-12-13T06:11:11.242Z,99217.06
2022-12-13T06:13:43.852Z,99205.56
2022-12-13T06:16:22.807Z,99208.47
2022-12-13T06:19:02.804Z,99207.06
2022-12-13T06:21:41.145Z,99199.72
2022-12-13T06:24:14.269Z,99209.59
2022-12-13T06:26:42.135Z,99207.91
2022-12-13T06:29:11.668Z,99206.22
2022-12-13T06:31:39.521Z,99195.59
2022-12-13T06:34:14.203Z,99200.84
2022-12-13T06:36:43.367Z,99202.53
2022-12-13T06:39:11.265Z,99206.53
2022-12-13T06:41:39.598Z,99203.91
2022-12-13T06:44:07.445Z,99207.56
2022-12-13T06:46:36.934Z,99209.22
2022-12-13T06:49:08.710Z,99209.97
2022-12-13T06:51:36.566Z,99204.56
2022-12-13T06:54:04.826Z,99217.69
2022-12-13T06:56:32.979Z,99208.47
2022-12-13T06:59:02.286Z,99218.34
2022-12-13T07:01:37.069Z,99221.25
2022-12-13T07:04:29.340Z,99222.63
2022-12-13T07:07:01.309Z,99218.25
2022-12-13T07:09:30.854Z,99219.44
2022-12-13T07:11:58.819Z,99216.28
2022-12-13T07:14:26.761Z,99207.06
2022-12-13T07:17:02.828Z,99216.47
2022-12-13T07:19:35.570Z,99214.91
2022-12-13T07:22:05.850Z,99212.34
2022-12-13T07:24:35.043Z,99218.63
2022-12-13T07:27:03.638Z,99226.59
2022-12-13T07:29:32.258Z,99230.97
2022-12-13T07:32:02.279Z,99228.03
2022-12-13T07:34:32.313Z,99238.00
2022-12-13T07:37:00.297Z,99238.22
2022-12-13T07:39:28.526Z,99239.69
2022-12-13T07:41:57.037Z,99236.53
2022-12-13T07:44:25.682Z,99243.22
2022-12-13T07:46:53.903Z,99243.84
2022-12-13T07:49:21.775Z,99254.31
2022-12-13T07:51:51.109Z,99254.97
2022-12-13T07:54:19.304Z,99248.72
2022-12-13T07:56:47.571Z,99257.91
2022-12-13T07:59:15.873Z,99257.47
2022-12-13T08:01:56.805Z,99257.72
2022-12-13T08:04:24.781Z,99248.72
2022-12-13T08:06:54.128Z,99248.13
2022-12-13T08:09:22.072Z,99249.16
2022-12-13T08:11:52.126Z,99247.41
2022-12-13T08:14:20.356Z,99254.56
2022-12-13T08:16:48.933Z,99252.91
2022-12-13T08:19:17.295Z,99260.84
2022-12-13T08:21:55.216Z,99258.38
2022-12-13T08:24:26.423Z,99259.63
2022-12-13T08:26:55.071Z,99256.31
2022-12-13T08:29:33.987Z,99247.19
2022-12-13T08:32:04.376Z,99243.56
2022-12-13T08:34:32.757Z,99238.56
2022-12-13T08:37:03.239Z,99227.00
2022-12-13T08:39:35.341Z,99237.22
2022-12-13T08:42:16.099Z,99238.75
2022-12-13T08:44:47.080Z,99244.44
2022-12-13T08:47:22.553Z,99243.59
2022-12-13T08:49:53.314Z,99240.84
2022-12-13T08:52:23.049Z,99237.94
2022-12-13T08:54:52.512Z,99247.97
2022-12-13T08:57:20.569Z,99241.06
2022-12-13T08:59:50.354Z,99242.53
2022-12-13T09:02:18.469Z,99237.19
2022-12-13T09:04:47.226Z,99232.69
2022-12-13T09:07:15.419Z,99235.16
2022-12-13T09:09:43.270Z,99230.28
2022-12-13T09:12:29.876Z,99241.09
2022-12-13T09:15:01.249Z,99222.81
2022-12-13T09:17:36.385Z,99218.28
2022-12-13T09:20:28.093Z,99216.03
2022-12-13T09:23:01.561Z,99212.63
2022-12-13T09:25:36.822Z,99213.75
2022-12-13T09:28:09.174Z,99218.66
2022-12-13T09:30:38.025Z,99225.78
2022-12-13T09:33:18.185Z,99215.50
2022-12-13T09:35:54.475Z,99218.53
2022-12-13T09:38:22.357Z,99223.63
2022-12-13T09:40:58.399Z,99221.31
2022-12-13T09:43:33.753Z,99215.53
2022-12-13T09:46:23.030Z,99208.06
2022-12-13T09:49:01.636Z,99207.75
2022-12-13T09:51:43.676Z,99214.84
2022-12-13T09:54:19.499Z,99223.22
2022-12-13T09:56:50.861Z,99216.69
2022-12-13T09:59:27.768Z,99215.53
2022-12-13T10:01:55.958Z,99202.97
2022-12-13T10:04:23.922Z,99209.22
2022-12-13T10:06:54.593Z,99200.28
2022-12-13T10:09:22.917Z,99210.19
2022-12-13T10:11:52.491Z,99211.78
2022-12-13T10:14:27.584Z,99214.19
2022-12-13T10:16:58.907Z,99215.88
2022-12-13T10:19:34.989Z,99219.66
2022-12-13T10:22:04.722Z,99217.09
2022-12-13T10:24:50.491Z,99210.63
2022-12-13T10:27:20.456Z,99210.31
2022-12-13T10:30:02.919Z,99206.44
2022-12-13T10:32:37.532Z,99206.59
2022-12-13T10:35:20.792Z,99197.75
2022-12-13T10:37:48.960Z,99193.13
2022-12-13T10:40:32.421Z,99191.66
2022-12-13T10:43:14.187Z,99188.69
2022-12-13T10:45:45.107Z,99189.63
2022-12-13T10:48:22.309Z,99194.22
2022-12-13T10:51:00.019Z,99203.94
2022-12-13T10:53:34.124Z,99190.81
2022-12-13T10:56:03.185Z,99192.41
2022-12-13T10:58:40.154Z,99194.28
2022-12-13T11:01:24.421Z,99184.28
2022-12-13T11:04:02.345Z,99179.75
2022-12-13T11:06:43.456Z,99168.88
2022-12-13T11:09:23.081Z,99169.59
2022-12-13T11:11:58.012Z,99159.88
2022-12-13T11:14:31.845Z,99153.75
2022-12-13T11:17:08.876Z,99163.47
2022-12-13T11:19:40.772Z,99166.03
2022-12-13T11:22:11.095Z,99151.66
2022-12-13T11:24:42.264Z,99152.63
2022-12-13T11:27:29.503Z,99149.38
2022-12-13T11:30:10.229Z,99137.91
2022-12-13T11:32:58.902Z,99128.06
2022-12-13T11:35:33.954Z,99123.88
2022-12-13T11:38:09.506Z,99124.53
2022-12-13T11:40:44.650Z,99122.25
2022-12-13T11:43:25.124Z,99119.06
2022-12-13T11:45:56.911Z,99114.63
2022-12-13T11:48:38.243Z,99110.38
2022-12-13T11:51:09.237Z,99098.09
2022-12-13T11:53:47.250Z,99107.53
2022-12-13T11:56:25.539Z,99098.81
2022-12-13T11:59:03.938Z,99091.16
2022-12-13T12:01:40.102Z,99086.72
2022-12-13T12:04:18.345Z,99090.41
2022-12-13T12:06:53.103Z,99091.41
2022-12-13T12:09:26.276Z,99086.22
2022-12-13T12:12:02.178Z,99083.06
2022-12-13T12:14:37.543Z,99085.38
2022-12-13T12:17:06.861Z,99085.19
2022-12-13T12:19:39.762Z,99086.41
2022-12-13T12:22:22.547Z,99087.69
2022-12-13T12:25:02.877Z,99078.88
2022-12-13T12:27:38.811Z,99085.00
2022-12-13T12:30:23.568Z,99073.84
2022-12-13T12:33:05.746Z,99074.59
2022-12-13T12:35:59.577Z,99067.88
2022-12-13T12:39:06.371Z,99069.97
2022-12-13T12:41:46.037Z,99067.28
2022-12-13T12:44:30.754Z,99071.59
2022-12-13T12:50:24.252Z,99053.53
2022-12-13T12:53:07.238Z,99058.81
2022-12-13T12:55:49.241Z,99061.00
2022-12-13T12:58:26.702Z,99061.50
2022-12-13T13:01:09.217Z,99056.00
2022-12-13T13:03:40.108Z,99065.03
2022-12-13T13:06:13.652Z,99065.50
2022-12-13T13:08:51.480Z,99065.72
2022-12-13T13:11:25.834Z,99065.94
2022-12-13T13:14:06.678Z,99059.72
2022-12-13T13:16:37.779Z,99057.31
2022-12-13T13:19:06.538Z,99061.50
2022-12-13T13:21:52.152Z,99059.47
2022-12-13T13:24:24.405Z,99052.25
2022-12-13T13:26:55.284Z,99044.53
2022-12-13T13:29:43.242Z,99050.09
2022-12-13T13:32:40.828Z,99060.81
2022-12-13T13:35:53.379Z,99054.66
2022-12-13T13:38:52.549Z,99055.75
2022-12-13T13:41:57.456Z,99052.34
2022-12-13T13:45:04.509Z,99047.13
2022-12-13T13:47:43.344Z,99053.94
2022-12-13T13:50:49.719Z,99050.47
2022-12-13T13:54:02.255Z,99056.53
2022-12-13T13:57:09.050Z,99064.28
2022-12-13T14:00:12.019Z,99053.88
2022-12-13T14:03:33.151Z,99050.66
2022-12-13T14:06:49.592Z,99041.84
2022-12-13T14:10:05.142Z,99037.84
2022-12-13T14:12:59.282Z,99045.69
2022-12-13T14:16:03.955Z,99049.97
2022-12-13T14:19:17.733Z,99049.09
2022-12-13T14:21:59.365Z,99044.06
2022-12-13T14:24:40.013Z,99052.16
2022-12-13T14:27:35.253Z,99047.75
2022-12-13T14:30:17.973Z,99053.72
2022-12-13T14:32:53.502Z,99060.31
2022-12-13T14:35:27.406Z,99056.16
2022-12-13T14:38:04.655Z,99053.25
2022-12-13T14:40:34.756Z,99055.59
2022-12-13T14:43:03.119Z,99053.84
2022-12-13T14:45:34.654Z,99055.25
2022-12-13T14:48:10.075Z,99044.19
2022-12-13T14:50:40.115Z,99047.78
2022-12-13T14:53:09.895Z,99047.09
2022-12-13T14:55:38.805Z,99051.13
2022-12-13T14:58:20.185Z,99048.75
2022-12-13T15:00:49.147Z,99051.97
2022-12-13T15:03:24.914Z,99050.44
2022-12-13T15:05:55.730Z,99048.75
2022-12-13T15:08:24.521Z,99050.28
2022-12-13T15:10:54.806Z,99049.72
2022-12-13T15:13:29.498Z,99053.06
2022-12-13T15:16:01.336Z,99055.69
2022-12-13T15:18:31.204Z,99048.88
2022-12-13T15:20:59.839Z,99038.22
2022-12-13T15:23:32.725Z,99040.28
2022-12-13T15:26:03.996Z,99043.75
2022-12-13T15:28:34.790Z,99048.47
2022-12-13T15:31:05.398Z,99048.59
2022-12-13T15:33:41.071Z,99050.50
2022-12-13T15:36:20.158Z,99043.81
2022-12-13T15:39:01.366Z,99052.00
2022-12-13T15:41:31.478Z,99053.34
2022-12-13T15:44:03.413Z,99050.91
2022-12-13T15:46:36.882Z,99047.44
2022-12-13T15:49:14.149Z,99035.25
2022-12-13T15:51:57.910Z,99036.34
2022-12-13T15:54:27.641Z,99031.22
2022-12-13T15:57:13.069Z,99023.59
2022-12-13T15:59:42.380Z,99028.84
2022-12-13T16:02:18.123Z,99025.34
2022-12-13T16:04:47.464Z,99023.25
2022-12-13T16:07:25.014Z,99027.13
2022-12-13T16:09:54.399Z,99016.09
2022-12-13T16:12:25.921Z,99005.03
2022-12-13T16:14:53.772Z,99005.31
2022-12-13T16:17:36.939Z,99011.28
2022-12-13T16:20:14.184Z,99016.41
2022-12-13T16:22:42.624Z,99006.41
2022-12-13T16:25:13.657Z,99004.78
2022-12-13T16:27:41.856Z,99005.03
2022-12-13T16:30:16.781Z,99000.63
2022-12-13T16:33:17.533Z,98994.53
2022-12-13T16:35:34.181Z,98997.13
2022-12-13T16:38:09.135Z,99000.88
2022-12-13T16:40:37.673Z,98991.31
2022-12-13T16:43:07.389Z,98983.44
2022-12-13T16:45:42.205Z,98988.69
2022-12-13T16:48:10.816Z,98986.22
2022-12-13T16:50:43.954Z,98985.81
2022-12-13T16:53:17.172Z,98985.66
2022-12-13T16:55:45.657Z,98985.94
2022-12-13T16:58:26.350Z,98984.53
2022-12-13T17:00:59.742Z,98978.44
2022-12-13T17:03:28.595Z,98976.34
2022-12-13T17:05:58.713Z,98974.97
2022-12-13T17:08:28.011Z,98967.94
2022-12-13T17:10:58.275Z,98958.47
2022-12-13T17:13:26.872Z,98954.31
2022-12-13T17:15:59.625Z,98957.06
2022-12-13T17:18:28.812Z,98960.31
2022-12-13T17:20:59.032Z,98961.84
2022-12-13T17:23:27.534Z,98953.38
2022-12-13T17:25:58.025Z,98951.44
2022-12-13T17:28:27.343Z,98944.22
2022-12-13T17:30:56.002Z,98956.84
2022-12-13T17:33:28.546Z,98945.50
2022-12-13T17:35:58.198Z,98948.66
2022-12-13T17:38:26.353Z,98957.63
2022-12-13T17:40:55.279Z,98954.09
2022-12-13T17:43:33.019Z,98953.84
2022-12-13T17:46:03.950Z,98955.25
2022-12-13T17:48:39.309Z,98959.16
2022-12-13T17:51:11.011Z,98955.50
2022-12-13T17:53:41.042Z,98948.59
2022-12-13T17:56:12.044Z,98948.34
2022-12-13T17:58:40.563Z,98941.28
2022-12-13T18:01:13.897Z,98949.41
2022-12-13T18:03:42.565Z,98952.28
2022-12-13T18:06:12.615Z,98945.25
2022-12-13T18:08:44.544Z,98950.38
2022-12-13T18:14:02.575Z,98958.56
2022-12-13T18:16:37.096Z,98973.06
2022-12-13T18:19:09.180Z,98959.91
2022-12-13T18:21:39.244Z,98963.22
2022-12-13T18:24:08.333Z,98956.31
2022-12-13T18:26:36.331Z,98952.88
2022-12-13T18:29:05.489Z,98952.16
2022-12-13T18:31:33.701Z,98947.72
2022-12-13T18:34:03.593Z,98948.56
2022-12-13T18:36:34.624Z,98948.59
2022-12-13T18:39:05.353Z,98936.41
2022-12-13T18:41:33.755Z,98933.72
2022-12-13T18:44:03.939Z,98934.50
2022-12-13T18:46:33.252Z,98926.75
2022-12-13T18:49:01.692Z,98931.59
2022-12-13T18:51:30.016Z,98946.78
2022-12-13T18:53:59.267Z,98961.03
2022-12-13T18:56:29.913Z,98948.03
2022-12-13T18:58:59.547Z,98939.41
2022-12-13T19:01:28.591Z,98938.56
2022-12-13T19:03:59.795Z,98933.00
2022-12-13T19:06:28.872Z,98922.50
2022-12-13T19:08:58.913Z,98920.84
2022-12-13T19:11:29.558Z,98927.31
2022-12-13T19:13:58.015Z,98925.50
2022-12-13T19:16:26.739Z,98924.69
2022-12-13T19:18:55.038Z,98916.69
2022-12-13T19:21:24.043Z,98902.59
2022-12-13T19:23:57.429Z,98894.00
2022-12-13T19:26:26.817Z,98889.41
2022-12-13T19:28:57.473Z,98887.47
2022-12-13T19:31:31.144Z,98890.28
2022-12-13T19:34:01.184Z,98884.72
2022-12-13T19:36:29.431Z,98892.47
2022-12-13T19:38:57.389Z,98885.97
2022-12-13T19:41:26.289Z,98895.47
2022-12-13T19:43:55.824Z,98904.91
2022-12-13T19:46:23.987Z,98915.66
2022-12-13T19:48:53.260Z,98906.53
2022-12-13T19:51:21.578Z,98893.53
2022-12-13T19:53:49.792Z,98877.53
2022-12-13T19:56:20.712Z,98881.69
2022-12-13T19:58:50.064Z,98879.72
2022-12-13T20:01:20.140Z,98866.47
2022-12-13T20:03:48.735Z,98856.78
2022-12-13T20:06:19.203Z,98857.47
2022-12-13T20:08:47.517Z,98850.16
2022-12-13T20:11:17.138Z,98858.50
2022-12-13T20:13:45.205Z,98866.75
2022-12-13T20:16:17.881Z,98873.63
2022-12-13T20:18:47.897Z,98859.84
2022-12-13T20:21:16.743Z,98854.59
2022-12-13T20:23:49.531Z,98856.13
2022-12-13T20:26:21.102Z,98854.38
2022-12-13T20:28:49.677Z,98843.84
2022-12-13T20:31:19.728Z,98840.00
2022-12-13T20:33:49.965Z,98844.94
2022-12-13T20:36:25.330Z,98849.38
2022-12-13T20:38:55.820Z,98841.06
2022-12-13T20:41:26.039Z,98830.81
2022-12-13T20:43:54.864Z,98825.56
2022-12-13T20:46:23.295Z,98817.56
2022-12-13T20:48:53.412Z,98815.50
2022-12-13T20:51:23.976Z,98822.69
2022-12-13T20:53:53.396Z,98823.09
2022-12-13T20:56:23.369Z,98816.19
2022-12-13T20:58:52.127Z,98813.72
2022-12-13T21:01:21.797Z,98812.19
2022-12-13T21:03:50.567Z,98810.41
2022-12-13T21:06:19.889Z,98812.44
2022-12-13T21:08:54.579Z,98810.13
2022-12-13T21:11:27.679Z,98807.91
2022-12-13T21:14:06.824Z,98822.81
2022-12-13T21:16:41.939Z,98819.09
2022-12-13T21:19:13.027Z,98811.09
2022-12-13T21:21:42.675Z,98810.78
2022-12-13T21:24:13.300Z,98823.94
2022-12-13T21:26:41.291Z,98823.56
2022-12-13T21:29:11.169Z,98825.75
2022-12-13T21:31:40.514Z,98825.91
2022-12-13T21:34:09.196Z,98817.19
2022-12-13T21:36:38.884Z,98808.47
2022-12-13T21:39:12.419Z,98804.59
2022-12-13T21:41:41.307Z,98804.59
2022-12-13T21:44:11.026Z,98796.56
2022-12-13T21:49:26.843Z,98786.63
2022-12-13T21:51:55.112Z,98779.97
2022-12-13T21:54:24.413Z,98777.88
2022-12-13T21:57:09.816Z,98783.16
2022-12-13T21:59:38.459Z,98781.34
2022-12-13T22:02:15.009Z,98773.31
2022-12-13T22:04:47.126Z,98764.47
2022-12-13T22:07:16.721Z,98772.22
2022-12-13T22:09:46.630Z,98760.88
2022-12-13T22:12:21.465Z,98762.81
2022-12-13T22:14:49.758Z,98754.78
2022-12-13T22:17:17.869Z,98753.69
2022-12-13T22:19:48.800Z,98753.41
2022-12-13T22:22:18.023Z,98741.22
2022-12-13T22:24:53.115Z,98745.09
2022-12-13T22:27:24.080Z,98744.00
2022-12-13T22:29:53.405Z,98746.19
2022-12-13T22:32:22.557Z,98749.78
2022-12-13T22:34:50.566Z,98745.09
2022-12-13T22:37:18.509Z,98737.75
2022-12-13T22:39:47.807Z,98722.25
2022-12-13T22:42:15.806Z,98712.69
2022-12-13T22:44:43.870Z,98709.94
2022-12-13T22:47:11.894Z,98705.22
2022-12-13T22:49:40.072Z,98704.69
2022-12-13T22:52:08.206Z,98697.75
2022-12-13T22:54:36.112Z,98688.75
2022-12-13T22:57:05.746Z,98686.97
2022-12-13T22:59:34.134Z,98686.13
2022-12-13T23:02:03.915Z,98693.03
2022-12-13T23:04:32.522Z,98691.66
2022-12-13T23:07:00.451Z,98689.44
2022-12-13T23:09:28.377Z,98688.31
2022-12-13T23:12:13.808Z,98683.91
2022-12-13T23:14:43.095Z,98675.31
2022-12-13T23:17:11.391Z,98674.44
2022-12-13T23:19:50.784Z,98678.31
2022-12-13T23:22:21.931Z,98674.19
2022-12-13T23:24:50.389Z,98665.88
2022-12-13T23:27:18.897Z,98661.97
2022-12-13T23:29:48.236Z,98664.06
2022-12-13T23:32:16.121Z,98657.56
2022-12-13T23:34:43.968Z,98663.38
2022-12-13T23:37:12.008Z,98667.25
2022-12-13T23:39:40.223Z,98667.22
2022-12-13T23:42:08.168Z,98665.13
2022-12-13T23:44:36.257Z,98669.59
2022-12-13T23:47:05.614Z,98669.72
2022-12-13T23:49:33.426Z,98655.75
2022-12-13T23:52:01.366Z,98660.31
2022-12-13T23:54:32.187Z,98663.34
2022-12-13T23:57:00.048Z,98653.38
2022-12-13T23:59:28.921Z,98658.94
